sensor_id;sensor_type;location;lat;lon;timestamp;pressure;altitude;pressure_sealevel;temperature;humidity
84108;BME280;74203;50.730;1.626;2024-02-21T00:01:33;101196.03;;;9.57;89.09
84108;BME280;74203;50.730;1.626;2024-02-21T00:03:40;101191.53;;;9.72;88.82
84108;BME280;74203;50.730;1.626;2024-02-21T00:05:47;101189.31;;;9.76;88.69
84108;BME280;74203;50.730;1.626;2024-02-21T00:07:55;101178.63;;;9.82;88.20
84108;BME280;74203;50.730;1.626;2024-02-21T00:10:02;101184.03;;;9.82;88.25
84108;BME280;74203;50.730;1.626;2024-02-21T00:12:10;101176.94;;;9.81;88.48
84108;BME280;74203;50.730;1.626;2024-02-21T00:14:18;101181.25;;;9.91;88.34
84108;BME280;74203;50.730;1.626;2024-02-21T00:16:25;101169.56;;;9.75;89.32
84108;BME280;74203;50.730;1.626;2024-02-21T00:18:32;101168.59;;;9.76;88.93
84108;BME280;74203;50.730;1.626;2024-02-21T00:20:40;101164.66;;;9.64;89.50
84108;BME280;74203;50.730;1.626;2024-02-21T00:22:47;101166.69;;;9.62;89.60
84108;BME280;74203;50.730;1.626;2024-02-21T00:24:54;101167.62;;;9.69;89.65
84108;BME280;74203;50.730;1.626;2024-02-21T00:27:01;101158.06;;;9.81;89.10
84108;BME280;74203;50.730;1.626;2024-02-21T00:29:09;101171.69;;;10.03;88.33
84108;BME280;74203;50.730;1.626;2024-02-21T00:31:16;101172.31;;;9.90;88.56
84108;BME280;74203;50.730;1.626;2024-02-21T00:33:23;101167.75;;;9.76;89.10
84108;BME280;74203;50.730;1.626;2024-02-21T00:35:31;101161.78;;;9.80;88.99
84108;BME280;74203;50.730;1.626;2024-02-21T00:37:38;101151.87;;;9.96;88.33
84108;BME280;74203;50.730;1.626;2024-02-21T00:39:45;101155.47;;;9.88;88.63
84108;BME280;74203;50.730;1.626;2024-02-21T00:41:52;101145.22;;;9.69;89.41
84108;BME280;74203;50.730;1.626;2024-02-21T00:44:00;101145.16;;;9.92;89.02
84108;BME280;74203;50.730;1.626;2024-02-21T00:46:09;101145.34;;;10.05;88.32
84108;BME280;74203;50.730;1.626;2024-02-21T00:48:17;101145.59;;;9.80;88.76
84108;BME280;74203;50.730;1.626;2024-02-21T00:50:24;101137.34;;;9.97;88.37
84108;BME280;74203;50.730;1.626;2024-02-21T00:52:31;101129.50;;;9.72;89.27
84108;BME280;74203;50.730;1.626;2024-02-21T00:54:39;101130.00;;;9.76;89.74
84108;BME280;74203;50.730;1.626;2024-02-21T00:56:46;101121.63;;;9.85;89.00
84108;BME280;74203;50.730;1.626;2024-02-21T00:58:53;101115.41;;;9.85;89.04
84108;BME280;74203;50.730;1.626;2024-02-21T01:01:02;101105.97;;;9.66;89.78
84108;BME280;74203;50.730;1.626;2024-02-21T01:03:09;101105.13;;;9.51;89.83
84108;BME280;74203;50.730;1.626;2024-02-21T01:05:16;101099.25;;;9.47;90.13
84108;BME280;74203;50.730;1.626;2024-02-21T01:07:24;101106.22;;;9.42;90.27
84108;BME280;74203;50.730;1.626;2024-02-21T01:09:31;101097.56;;;9.46;89.92
84108;BME280;74203;50.730;1.626;2024-02-21T01:11:38;101097.69;;;9.53;90.21
84108;BME280;74203;50.730;1.626;2024-02-21T01:13:46;101098.63;;;9.60;90.16
84108;BME280;74203;50.730;1.626;2024-02-21T01:15:54;101105.69;;;9.61;90.33
84108;BME280;74203;50.730;1.626;2024-02-21T01:18:01;101098.19;;;9.71;89.74
84108;BME280;74203;50.730;1.626;2024-02-21T01:20:10;101108.22;;;9.77;89.41
84108;BME280;74203;50.730;1.626;2024-02-21T01:22:17;101101.28;;;9.83;89.14
84108;BME280;74203;50.730;1.626;2024-02-21T01:24:25;101095.78;;;9.76;89.39
84108;BME280;74203;50.730;1.626;2024-02-21T01:26:32;101080.78;;;9.89;89.26
84108;BME280;74203;50.730;1.626;2024-02-21T01:28:40;101084.91;;;9.84;89.12
84108;BME280;74203;50.730;1.626;2024-02-21T01:30:47;101085.63;;;9.78;88.88
84108;BME280;74203;50.730;1.626;2024-02-21T01:32:54;101079.50;;;9.84;88.94
84108;BME280;74203;50.730;1.626;2024-02-21T01:35:02;101080.53;;;9.98;88.57
84108;BME280;74203;50.730;1.626;2024-02-21T01:37:10;101079.41;;;9.93;88.37
84108;BME280;74203;50.730;1.626;2024-02-21T01:39:18;101074.84;;;9.78;88.79
84108;BME280;74203;50.730;1.626;2024-02-21T01:41:26;101076.41;;;9.58;89.46
84108;BME280;74203;50.730;1.626;2024-02-21T01:43:33;101072.25;;;9.70;89.81
84108;BME280;74203;50.730;1.626;2024-02-21T01:45:40;101074.66;;;9.65;89.79
84108;BME280;74203;50.730;1.626;2024-02-21T01:47:48;101067.00;;;9.54;90.25
84108;BME280;74203;50.730;1.626;2024-02-21T01:49:56;101064.59;;;9.89;89.40
84108;BME280;74203;50.730;1.626;2024-02-21T01:52:05;101063.87;;;9.95;88.40
84108;BME280;74203;50.730;1.626;2024-02-21T01:54:15;101067.87;;;9.69;89.06
84108;BME280;74203;50.730;1.626;2024-02-21T01:56:24;101061.47;;;9.70;89.42
84108;BME280;74203;50.730;1.626;2024-02-21T01:58:32;101058.47;;;9.65;89.77
84108;BME280;74203;50.730;1.626;2024-02-21T02:00:44;101056.25;;;9.83;89.44
84108;BME280;74203;50.730;1.626;2024-02-21T02:02:52;101045.81;;;10.10;88.57
84108;BME280;74203;50.730;1.626;2024-02-21T02:04:59;101044.13;;;10.09;88.12
84108;BME280;74203;50.730;1.626;2024-02-21T02:07:09;101039.41;;;9.96;88.27
84108;BME280;74203;50.730;1.626;2024-02-21T02:09:17;101037.09;;;9.78;88.76
84108;BME280;74203;50.730;1.626;2024-02-21T02:11:24;101039.34;;;9.90;88.56
84108;BME280;74203;50.730;1.626;2024-02-21T02:13:32;101033.72;;;10.06;87.98
84108;BME280;74203;50.730;1.626;2024-02-21T02:15:44;101017.41;;;10.14;87.27
84108;BME280;74203;50.730;1.626;2024-02-21T02:17:51;101015.47;;;10.08;87.66
84108;BME280;74203;50.730;1.626;2024-02-21T02:19:59;101007.84;;;10.26;87.09
84108;BME280;74203;50.730;1.626;2024-02-21T02:22:14;100998.03;;;10.04;87.40
84108;BME280;74203;50.730;1.626;2024-02-21T02:24:26;100993.44;;;10.04;87.93
84108;BME280;74203;50.730;1.626;2024-02-21T02:26:34;100992.16;;;10.00;87.77
84108;BME280;74203;50.730;1.626;2024-02-21T02:28:41;100977.62;;;10.16;87.60
84108;BME280;74203;50.730;1.626;2024-02-21T02:30:49;100973.97;;;10.09;87.38
84108;BME280;74203;50.730;1.626;2024-02-21T02:32:56;100969.66;;;9.93;87.94
84108;BME280;74203;50.730;1.626;2024-02-21T02:35:04;100964.19;;;9.87;88.30
84108;BME280;74203;50.730;1.626;2024-02-21T02:37:11;100955.06;;;9.88;88.46
84108;BME280;74203;50.730;1.626;2024-02-21T02:39:18;100963.44;;;9.93;88.50
84108;BME280;74203;50.730;1.626;2024-02-21T02:41:26;100957.28;;;9.99;88.31
84108;BME280;74203;50.730;1.626;2024-02-21T02:43:33;100944.81;;;9.98;88.04
84108;BME280;74203;50.730;1.626;2024-02-21T02:45:41;100944.81;;;9.98;88.21
84108;BME280;74203;50.730;1.626;2024-02-21T02:47:48;100936.47;;;9.93;88.34
84108;BME280;74203;50.730;1.626;2024-02-21T02:49:56;100937.38;;;10.00;87.74
84108;BME280;74203;50.730;1.626;2024-02-21T02:52:03;100925.00;;;10.05;87.70
84108;BME280;74203;50.730;1.626;2024-02-21T02:54:11;100932.47;;;9.89;88.20
84108;BME280;74203;50.730;1.626;2024-02-21T02:56:19;100935.31;;;10.02;87.96
84108;BME280;74203;50.730;1.626;2024-02-21T02:58:26;100933.56;;;9.94;88.17
84108;BME280;74203;50.730;1.626;2024-02-21T03:00:33;100938.59;;;9.97;87.89
84108;BME280;74203;50.730;1.626;2024-02-21T03:02:43;100930.03;;;9.94;88.15
84108;BME280;74203;50.730;1.626;2024-02-21T03:04:50;100925.00;;;10.05;88.13
84108;BME280;74203;50.730;1.626;2024-02-21T03:06:58;100915.94;;;10.13;87.43
84108;BME280;74203;50.730;1.626;2024-02-21T03:09:05;100908.47;;;10.15;87.23
84108;BME280;74203;50.730;1.626;2024-02-21T03:11:12;100914.38;;;9.82;88.35
84108;BME280;74203;50.730;1.626;2024-02-21T03:13:20;100915.44;;;10.03;88.13
84108;BME280;74203;50.730;1.626;2024-02-21T03:15:27;100898.91;;;9.91;88.22
84108;BME280;74203;50.730;1.626;2024-02-21T03:17:35;100902.63;;;9.75;88.72
84108;BME280;74203;50.730;1.626;2024-02-21T03:19:42;100897.66;;;9.94;88.49
84108;BME280;74203;50.730;1.626;2024-02-21T03:21:49;100901.66;;;9.98;88.35
84108;BME280;74203;50.730;1.626;2024-02-21T03:23:57;100899.84;;;9.83;88.43
84108;BME280;74203;50.730;1.626;2024-02-21T03:26:04;100903.94;;;9.79;88.66
84108;BME280;74203;50.730;1.626;2024-02-21T03:28:12;100898.13;;;9.61;89.16
84108;BME280;74203;50.730;1.626;2024-02-21T03:30:20;100891.81;;;9.69;89.43
84108;BME280;74203;50.730;1.626;2024-02-21T03:32:27;100896.69;;;9.80;89.03
84108;BME280;74203;50.730;1.626;2024-02-21T03:34:35;100897.31;;;9.82;88.92
84108;BME280;74203;50.730;1.626;2024-02-21T03:36:42;100892.41;;;9.85;88.79
84108;BME280;74203;50.730;1.626;2024-02-21T03:38:50;100898.06;;;9.91;88.26
84108;BME280;74203;50.730;1.626;2024-02-21T03:40:57;100890.41;;;9.94;88.03
84108;BME280;74203;50.730;1.626;2024-02-21T03:43:05;100901.34;;;10.07;87.51
84108;BME280;74203;50.730;1.626;2024-02-21T03:45:13;100892.88;;;9.74;88.51
84108;BME280;74203;50.730;1.626;2024-02-21T03:47:20;100888.31;;;9.90;88.11
84108;BME280;74203;50.730;1.626;2024-02-21T03:49:28;100893.03;;;9.88;88.32
84108;BME280;74203;50.730;1.626;2024-02-21T03:51:35;100887.75;;;9.79;88.27
84108;BME280;74203;50.730;1.626;2024-02-21T03:53:42;100878.78;;;9.94;88.08
84108;BME280;74203;50.730;1.626;2024-02-21T03:55:50;100874.69;;;9.98;88.05
84108;BME280;74203;50.730;1.626;2024-02-21T03:57:57;100871.72;;;9.93;88.10
84108;BME280;74203;50.730;1.626;2024-02-21T04:00:05;100862.12;;;10.05;87.89
84108;BME280;74203;50.730;1.626;2024-02-21T04:02:13;100866.06;;;10.09;87.43
84108;BME280;74203;50.730;1.626;2024-02-21T04:04:20;100870.63;;;10.08;87.36
84108;BME280;74203;50.730;1.626;2024-02-21T04:06:28;100862.38;;;10.10;86.96
84108;BME280;74203;50.730;1.626;2024-02-21T04:08:35;100861.41;;;10.18;86.87
84108;BME280;74203;50.730;1.626;2024-02-21T04:10:43;100854.50;;;10.30;86.82
84108;BME280;74203;50.730;1.626;2024-02-21T04:12:50;100857.84;;;10.32;86.42
84108;BME280;74203;50.730;1.626;2024-02-21T04:14:57;100853.75;;;10.21;86.27
84108;BME280;74203;50.730;1.626;2024-02-21T04:17:05;100848.88;;;10.10;87.08
84108;BME280;74203;50.730;1.626;2024-02-21T04:19:12;100850.75;;;10.09;86.60
84108;BME280;74203;50.730;1.626;2024-02-21T04:21:19;100856.31;;;9.87;87.27
84108;BME280;74203;50.730;1.626;2024-02-21T04:23:27;100852.97;;;9.84;87.73
84108;BME280;74203;50.730;1.626;2024-02-21T04:25:34;100854.97;;;9.76;88.08
84108;BME280;74203;50.730;1.626;2024-02-21T04:27:42;100846.59;;;9.71;87.93
84108;BME280;74203;50.730;1.626;2024-02-21T04:29:49;100845.53;;;9.87;87.71
84108;BME280;74203;50.730;1.626;2024-02-21T04:31:57;100843.31;;;9.75;87.63
84108;BME280;74203;50.730;1.626;2024-02-21T04:34:05;100849.53;;;9.91;87.12
84108;BME280;74203;50.730;1.626;2024-02-21T04:36:13;100843.44;;;9.67;87.44
84108;BME280;74203;50.730;1.626;2024-02-21T04:38:20;100835.59;;;9.51;87.87
84108;BME280;74203;50.730;1.626;2024-02-21T04:40:28;100834.06;;;9.42;88.16
84108;BME280;74203;50.730;1.626;2024-02-21T04:42:35;100830.47;;;9.56;87.76
84108;BME280;74203;50.730;1.626;2024-02-21T04:44:42;100829.06;;;9.60;87.82
84108;BME280;74203;50.730;1.626;2024-02-21T04:46:49;100827.47;;;9.66;87.59
84108;BME280;74203;50.730;1.626;2024-02-21T04:48:57;100819.94;;;9.61;87.41
84108;BME280;74203;50.730;1.626;2024-02-21T04:51:04;100811.53;;;9.49;87.46
84108;BME280;74203;50.730;1.626;2024-02-21T04:53:12;100812.06;;;9.60;87.23
84108;BME280;74203;50.730;1.626;2024-02-21T04:55:19;100812.97;;;9.67;87.07
84108;BME280;74203;50.730;1.626;2024-02-21T04:57:26;100808.91;;;9.56;87.81
84108;BME280;74203;50.730;1.626;2024-02-21T04:59:34;100814.62;;;9.68;87.43
84108;BME280;74203;50.730;1.626;2024-02-21T05:01:41;100807.56;;;9.67;87.33
84108;BME280;74203;50.730;1.626;2024-02-21T05:03:49;100806.16;;;9.71;87.50
84108;BME280;74203;50.730;1.626;2024-02-21T05:05:56;100795.50;;;9.63;87.17
84108;BME280;74203;50.730;1.626;2024-02-21T05:08:04;100789.66;;;9.59;87.11
84108;BME280;74203;50.730;1.626;2024-02-21T05:10:12;100795.69;;;9.61;87.00
84108;BME280;74203;50.730;1.626;2024-02-21T05:12:19;100774.94;;;9.40;86.79
84108;BME280;74203;50.730;1.626;2024-02-21T05:14:27;100782.47;;;9.45;86.82
84108;BME280;74203;50.730;1.626;2024-02-21T05:16:35;100773.88;;;9.56;86.72
84108;BME280;74203;50.730;1.626;2024-02-21T05:18:42;100765.03;;;9.62;86.02
84108;BME280;74203;50.730;1.626;2024-02-21T05:20:50;100768.16;;;9.66;85.96
84108;BME280;74203;50.730;1.626;2024-02-21T05:22:57;100745.13;;;9.63;85.40
84108;BME280;74203;50.730;1.626;2024-02-21T05:25:05;100753.00;;;9.43;85.77
84108;BME280;74203;50.730;1.626;2024-02-21T05:27:12;100745.50;;;9.39;85.73
84108;BME280;74203;50.730;1.626;2024-02-21T05:29:20;100737.91;;;9.27;86.08
84108;BME280;74203;50.730;1.626;2024-02-21T05:31:27;100731.25;;;9.23;85.57
84108;BME280;74203;50.730;1.626;2024-02-21T05:33:50;100727.50;;;9.24;85.76
84108;BME280;74203;50.730;1.626;2024-02-21T05:35:57;100723.72;;;9.19;85.70
84108;BME280;74203;50.730;1.626;2024-02-21T05:38:05;100723.78;;;9.25;85.46
84108;BME280;74203;50.730;1.626;2024-02-21T05:40:14;100721.22;;;9.17;85.73
84108;BME280;74203;50.730;1.626;2024-02-21T05:42:21;100711.97;;;9.05;85.71
84108;BME280;74203;50.730;1.626;2024-02-21T05:44:29;100718.41;;;8.89;86.55
84108;BME280;74203;50.730;1.626;2024-02-21T05:46:36;100719.59;;;9.01;86.04
84108;BME280;74203;50.730;1.626;2024-02-21T05:48:43;100713.44;;;9.08;85.96
84108;BME280;74203;50.730;1.626;2024-02-21T05:50:51;100719.13;;;8.98;86.50
84108;BME280;74203;50.730;1.626;2024-02-21T05:52:58;100717.81;;;9.09;85.76
84108;BME280;74203;50.730;1.626;2024-02-21T05:55:06;100705.31;;;9.22;85.32
84108;BME280;74203;50.730;1.626;2024-02-21T05:57:14;100704.16;;;9.10;85.79
84108;BME280;74203;50.730;1.626;2024-02-21T05:59:21;100711.34;;;9.24;85.02
84108;BME280;74203;50.730;1.626;2024-02-21T06:01:28;100702.56;;;9.16;85.31
84108;BME280;74203;50.730;1.626;2024-02-21T06:03:36;100702.63;;;9.22;85.55
84108;BME280;74203;50.730;1.626;2024-02-21T06:05:43;100699.94;;;9.22;85.44
84108;BME280;74203;50.730;1.626;2024-02-21T06:07:51;100693.59;;;9.30;84.81
84108;BME280;74203;50.730;1.626;2024-02-21T06:09:58;100693.25;;;9.40;84.52
84108;BME280;74203;50.730;1.626;2024-02-21T06:12:06;100686.78;;;9.34;84.64
84108;BME280;74203;50.730;1.626;2024-02-21T06:14:14;100688.91;;;9.39;84.30
84108;BME280;74203;50.730;1.626;2024-02-21T06:16:21;100681.78;;;9.31;84.28
84108;BME280;74203;50.730;1.626;2024-02-21T06:18:28;100683.03;;;9.28;84.50
84108;BME280;74203;50.730;1.626;2024-02-21T06:20:35;100673.31;;;9.34;84.51
84108;BME280;74203;50.730;1.626;2024-02-21T06:22:43;100662.59;;;9.41;83.94
84108;BME280;74203;50.730;1.626;2024-02-21T06:24:50;100668.06;;;9.26;84.29
84108;BME280;74203;50.730;1.626;2024-02-21T06:26:57;100665.28;;;9.19;84.30
84108;BME280;74203;50.730;1.626;2024-02-21T06:29:04;100665.94;;;9.43;83.99
84108;BME280;74203;50.730;1.626;2024-02-21T06:31:12;100653.81;;;9.32;84.12
84108;BME280;74203;50.730;1.626;2024-02-21T06:33:19;100652.56;;;9.28;84.53
84108;BME280;74203;50.730;1.626;2024-02-21T06:35:26;100650.78;;;9.20;84.33
84108;BME280;74203;50.730;1.626;2024-02-21T06:37:33;100656.06;;;9.28;84.56
84108;BME280;74203;50.730;1.626;2024-02-21T06:39:41;100650.56;;;9.37;84.52
84108;BME280;74203;50.730;1.626;2024-02-21T06:41:48;100636.38;;;9.28;84.97
84108;BME280;74203;50.730;1.626;2024-02-21T06:43:55;100625.91;;;9.40;85.40
84108;BME280;74203;50.730;1.626;2024-02-21T06:46:03;100620.94;;;9.15;87.05
84108;BME280;74203;50.730;1.626;2024-02-21T06:48:10;100615.97;;;9.19;87.45
84108;BME280;74203;50.730;1.626;2024-02-21T06:50:18;100624.44;;;9.16;87.73
84108;BME280;74203;50.730;1.626;2024-02-21T06:52:25;100617.13;;;9.10;88.74
84108;BME280;74203;50.730;1.626;2024-02-21T06:54:32;100615.06;;;9.12;88.77
84108;BME280;74203;50.730;1.626;2024-02-21T06:56:40;100611.41;;;8.98;89.42
84108;BME280;74203;50.730;1.626;2024-02-21T06:58:48;100615.12;;;9.18;89.24
84108;BME280;74203;50.730;1.626;2024-02-21T07:00:55;100608.22;;;9.30;88.61
84108;BME280;74203;50.730;1.626;2024-02-21T07:03:02;100605.53;;;9.30;88.64
84108;BME280;74203;50.730;1.626;2024-02-21T07:05:10;100601.69;;;9.18;88.79
84108;BME280;74203;50.730;1.626;2024-02-21T07:07:18;100592.69;;;9.33;88.36
84108;BME280;74203;50.730;1.626;2024-02-21T07:09:25;100583.28;;;9.22;88.26
84108;BME280;74203;50.730;1.626;2024-02-21T07:11:33;100579.09;;;9.19;88.59
84108;BME280;74203;50.730;1.626;2024-02-21T07:13:40;100578.31;;;9.25;88.08
84108;BME280;74203;50.730;1.626;2024-02-21T07:15:47;100556.91;;;9.17;88.20
84108;BME280;74203;50.730;1.626;2024-02-21T07:17:55;100548.25;;;9.22;87.57
84108;BME280;74203;50.730;1.626;2024-02-21T07:20:03;100549.59;;;9.11;87.94
84108;BME280;74203;50.730;1.626;2024-02-21T07:22:10;100553.44;;;9.23;87.67
84108;BME280;74203;50.730;1.626;2024-02-21T07:24:17;100549.72;;;9.24;87.54
84108;BME280;74203;50.730;1.626;2024-02-21T07:26:25;100547.47;;;9.28;86.95
84108;BME280;74203;50.730;1.626;2024-02-21T07:28:32;100543.97;;;9.34;87.24
84108;BME280;74203;50.730;1.626;2024-02-21T07:30:39;100542.47;;;9.25;86.80
84108;BME280;74203;50.730;1.626;2024-02-21T07:32:47;100539.44;;;9.35;86.83
84108;BME280;74203;50.730;1.626;2024-02-21T07:34:55;100530.34;;;9.36;86.51
84108;BME280;74203;50.730;1.626;2024-02-21T07:37:03;100521.13;;;9.23;86.87
84108;BME280;74203;50.730;1.626;2024-02-21T07:39:10;100505.59;;;9.25;86.60
84108;BME280;74203;50.730;1.626;2024-02-21T07:41:18;100509.16;;;9.33;86.12
84108;BME280;74203;50.730;1.626;2024-02-21T07:43:25;100512.78;;;9.18;86.55
84108;BME280;74203;50.730;1.626;2024-02-21T07:45:32;100505.94;;;9.16;87.07
84108;BME280;74203;50.730;1.626;2024-02-21T07:47:39;100504.19;;;9.29;87.10
84108;BME280;74203;50.730;1.626;2024-02-21T07:49:47;100511.59;;;9.27;87.11
84108;BME280;74203;50.730;1.626;2024-02-21T07:51:55;100485.16;;;9.38;87.14
84108;BME280;74203;50.730;1.626;2024-02-21T07:54:02;100485.53;;;9.35;86.98
84108;BME280;74203;50.730;1.626;2024-02-21T07:56:10;100469.00;;;9.38;86.70
84108;BME280;74203;50.730;1.626;2024-02-21T07:58:17;100471.91;;;9.36;86.37
84108;BME280;74203;50.730;1.626;2024-02-21T08:00:25;100475.06;;;9.46;86.47
84108;BME280;74203;50.730;1.626;2024-02-21T08:02:32;100465.75;;;9.49;85.62
84108;BME280;74203;50.730;1.626;2024-02-21T08:04:40;100461.19;;;9.49;85.55
84108;BME280;74203;50.730;1.626;2024-02-21T08:06:52;100461.34;;;9.41;85.79
84108;BME280;74203;50.730;1.626;2024-02-21T08:09:00;100455.34;;;9.46;85.58
84108;BME280;74203;50.730;1.626;2024-02-21T08:11:07;100450.81;;;9.46;85.91
84108;BME280;74203;50.730;1.626;2024-02-21T08:13:15;100450.47;;;9.56;85.46
84108;BME280;74203;50.730;1.626;2024-02-21T08:15:22;100441.09;;;9.52;85.62
84108;BME280;74203;50.730;1.626;2024-02-21T08:17:29;100431.38;;;9.57;85.43
84108;BME280;74203;50.730;1.626;2024-02-21T08:19:36;100428.47;;;9.59;84.90
84108;BME280;74203;50.730;1.626;2024-02-21T08:21:44;100429.34;;;9.66;84.65
84108;BME280;74203;50.730;1.626;2024-02-21T08:23:51;100408.62;;;9.73;84.30
84108;BME280;74203;50.730;1.626;2024-02-21T08:25:58;100417.28;;;9.55;84.57
84108;BME280;74203;50.730;1.626;2024-02-21T08:28:07;100415.00;;;9.59;84.21
84108;BME280;74203;50.730;1.626;2024-02-21T08:30:16;100406.47;;;9.49;84.39
84108;BME280;74203;50.730;1.626;2024-02-21T08:32:23;100406.13;;;9.65;84.53
84108;BME280;74203;50.730;1.626;2024-02-21T08:34:31;100400.25;;;9.55;84.98
84108;BME280;74203;50.730;1.626;2024-02-21T08:36:39;100390.75;;;9.59;85.43
84108;BME280;74203;50.730;1.626;2024-02-21T08:38:46;100390.72;;;9.52;85.81
84108;BME280;74203;50.730;1.626;2024-02-21T08:40:53;100377.69;;;9.56;86.68
84108;BME280;74203;50.730;1.626;2024-02-21T08:43:00;100370.84;;;9.60;86.41
84108;BME280;74203;50.730;1.626;2024-02-21T08:45:09;100363.00;;;9.65;85.69
84108;BME280;74203;50.730;1.626;2024-02-21T08:47:17;100359.72;;;9.76;85.59
84108;BME280;74203;50.730;1.626;2024-02-21T08:49:24;100351.84;;;9.81;84.69
84108;BME280;74203;50.730;1.626;2024-02-21T08:51:32;100346.91;;;9.98;84.55
84108;BME280;74203;50.730;1.626;2024-02-21T08:53:39;100350.44;;;9.99;83.90
84108;BME280;74203;50.730;1.626;2024-02-21T08:55:46;100338.34;;;9.81;83.69
84108;BME280;74203;50.730;1.626;2024-02-21T08:57:53;100338.59;;;9.87;83.65
84108;BME280;74203;50.730;1.626;2024-02-21T09:00:01;100331.97;;;9.96;83.20
84108;BME280;74203;50.730;1.626;2024-02-21T09:02:08;100329.06;;;9.91;83.62
84108;BME280;74203;50.730;1.626;2024-02-21T09:04:16;100325.72;;;9.89;83.20
84108;BME280;74203;50.730;1.626;2024-02-21T09:06:23;100319.91;;;9.85;83.71
84108;BME280;74203;50.730;1.626;2024-02-21T09:08:30;100317.81;;;9.80;84.22
84108;BME280;74203;50.730;1.626;2024-02-21T09:10:38;100314.94;;;9.89;84.16
84108;BME280;74203;50.730;1.626;2024-02-21T09:12:46;100307.87;;;9.88;85.10
84108;BME280;74203;50.730;1.626;2024-02-21T09:14:53;100306.66;;;9.83;84.94
84108;BME280;74203;50.730;1.626;2024-02-21T09:17:00;100302.72;;;9.93;85.25
84108;BME280;74203;50.730;1.626;2024-02-21T09:19:08;100294.22;;;10.16;83.45
84108;BME280;74203;50.730;1.626;2024-02-21T09:21:15;100283.22;;;10.04;83.59
84108;BME280;74203;50.730;1.626;2024-02-21T09:23:22;100287.59;;;10.18;83.54
84108;BME280;74203;50.730;1.626;2024-02-21T09:25:30;100284.28;;;10.16;82.82
84108;BME280;74203;50.730;1.626;2024-02-21T09:27:39;100271.41;;;10.05;83.08
84108;BME280;74203;50.730;1.626;2024-02-21T09:29:46;100271.81;;;10.22;82.85
84108;BME280;74203;50.730;1.626;2024-02-21T09:31:54;100276.41;;;10.41;81.76
84108;BME280;74203;50.730;1.626;2024-02-21T09:34:01;100264.78;;;10.27;81.76
84108;BME280;74203;50.730;1.626;2024-02-21T09:36:09;100263.56;;;10.23;81.72
84108;BME280;74203;50.730;1.626;2024-02-21T09:38:16;100264.37;;;10.44;80.88
84108;BME280;74203;50.730;1.626;2024-02-21T09:40:24;100247.37;;;10.30;81.49
84108;BME280;74203;50.730;1.626;2024-02-21T09:42:39;100238.00;;;10.19;81.96
84108;BME280;74203;50.730;1.626;2024-02-21T09:44:48;100241.97;;;10.23;81.77
84108;BME280;74203;50.730;1.626;2024-02-21T09:47:01;100237.78;;;10.34;81.42
84108;BME280;74203;50.730;1.626;2024-02-21T09:49:20;100229.69;;;10.41;80.95
84108;BME280;74203;50.730;1.626;2024-02-21T09:51:35;100219.50;;;10.43;80.61
84108;BME280;74203;50.730;1.626;2024-02-21T09:53:44;100214.13;;;10.36;80.74
84108;BME280;74203;50.730;1.626;2024-02-21T09:55:53;100204.19;;;10.30;80.68
84108;BME280;74203;50.730;1.626;2024-02-21T09:58:02;100208.12;;;10.34;80.59
84108;BME280;74203;50.730;1.626;2024-02-21T10:00:12;100208.28;;;10.59;80.16
84108;BME280;74203;50.730;1.626;2024-02-21T10:02:20;100195.44;;;10.48;80.30
84108;BME280;74203;50.730;1.626;2024-02-21T10:04:27;100195.03;;;10.51;79.62
84108;BME280;74203;50.730;1.626;2024-02-21T10:06:35;100183.81;;;10.47;79.31
84108;BME280;74203;50.730;1.626;2024-02-21T10:08:43;100192.03;;;10.72;79.13
84108;BME280;74203;50.730;1.626;2024-02-21T10:10:50;100168.03;;;10.51;79.57
84108;BME280;74203;50.730;1.626;2024-02-21T10:12:58;100168.63;;;10.53;79.94
84108;BME280;74203;50.730;1.626;2024-02-21T10:15:08;100166.94;;;10.65;79.22
84108;BME280;74203;50.730;1.626;2024-02-21T10:17:20;100149.53;;;10.48;79.36
84108;BME280;74203;50.730;1.626;2024-02-21T10:19:27;100141.69;;;10.39;79.45
84108;BME280;74203;50.730;1.626;2024-02-21T10:21:34;100161.00;;;10.43;79.46
84108;BME280;74203;50.730;1.626;2024-02-21T10:23:47;100154.31;;;10.52;80.12
84108;BME280;74203;50.730;1.626;2024-02-21T10:25:56;100136.06;;;10.41;79.61
84108;BME280;74203;50.730;1.626;2024-02-21T10:28:14;100134.84;;;10.37;79.37
84108;BME280;74203;50.730;1.626;2024-02-21T10:30:22;100129.66;;;10.35;79.81
84108;BME280;74203;50.730;1.626;2024-02-21T10:32:29;100125.28;;;10.41;79.33
84108;BME280;74203;50.730;1.626;2024-02-21T10:34:37;100116.78;;;10.44;79.08
84108;BME280;74203;50.730;1.626;2024-02-21T10:36:45;100107.38;;;10.53;79.04
84108;BME280;74203;50.730;1.626;2024-02-21T10:38:53;100099.00;;;10.68;79.06
84108;BME280;74203;50.730;1.626;2024-02-21T10:41:01;100102.72;;;10.74;78.98
84108;BME280;74203;50.730;1.626;2024-02-21T10:43:14;100099.56;;;10.77;78.95
84108;BME280;74203;50.730;1.626;2024-02-21T10:45:23;100096.47;;;10.80;78.71
84108;BME280;74203;50.730;1.626;2024-02-21T10:47:34;100067.63;;;10.74;78.33
84108;BME280;74203;50.730;1.626;2024-02-21T10:49:44;100066.63;;;10.61;78.80
84108;BME280;74203;50.730;1.626;2024-02-21T10:51:59;100065.78;;;10.68;78.68
84108;BME280;74203;50.730;1.626;2024-02-21T10:54:23;100071.28;;;10.48;79.26
84108;BME280;74203;50.730;1.626;2024-02-21T10:56:34;100072.50;;;10.52;79.29
84108;BME280;74203;50.730;1.626;2024-02-21T10:58:44;100070.38;;;10.60;79.40
84108;BME280;74203;50.730;1.626;2024-02-21T11:00:54;100074.91;;;10.73;79.04
84108;BME280;74203;50.730;1.626;2024-02-21T11:03:02;100053.28;;;10.73;78.74
84108;BME280;74203;50.730;1.626;2024-02-21T11:05:11;100056.66;;;10.62;79.03
84108;BME280;74203;50.730;1.626;2024-02-21T11:07:19;100056.72;;;10.49;79.22
84108;BME280;74203;50.730;1.626;2024-02-21T11:09:34;100045.78;;;10.44;79.86
84108;BME280;74203;50.730;1.626;2024-02-21T11:11:43;100036.41;;;10.46;80.70
84108;BME280;74203;50.730;1.626;2024-02-21T11:13:51;100050.50;;;10.48;80.72
84108;BME280;74203;50.730;1.626;2024-02-21T11:16:09;100028.06;;;10.54;80.94